Lyons, Georgia
Current Conditions -  °F | °C
As of 2:15 PM on Friday 24 Oct 2014 (Local Time) from KVDI Reporting Station
Clear Clear  
Wind Chill: 73°   Ceiling: Unl
Heat Index: 73°   Visibility: 10mi
Dew Point: 46°   Wind: 6mph
Humidity: 38%   Direction: 30°NNE
Pressure: 30.02"   Gusts: NA
Location:  32.2°N, 82.32°W
Report Text: KVDI 241815Z AUTO 03005KT 10SM CLR 23/08 A3002 RMK AO2
Loading
Personal Weather Stations






























Interactive Weather Map New forecast layout! Learn more

10-Day Weather Forecast

Advertisements
Track Severe Weather on mobile